Terminal Aerodrome Forecast
Issued by NWS

Home | Current Version | Previous Version | Text Only | Print | Product List | Glossary On
Versions: 1 2 3 4 5 6 7 8 9 10 11 12 13 14 15
000
FTUS42 KTAE 041812 AAA
TAFABY
TAF AMD
KABY 041812Z 0418/0518 30006KT P6SM VCTS SCT040CB
     FM050000 00000KT P6SM SCT050 SCT250
     FM051400 12005KT P6SM SCT040=

USA.gov is the U.S. government's official web portal to all federal, state and local government web resources and services.